sensor_id;sensor_type;location;lat;lon;timestamp;P1;durP1;ratioP1;P2;durP2;ratioP2
17345;SDS011;8790;53.590;10.002;2023-04-15T00:00:57;5.77;;;3.90;;
17345;SDS011;8790;53.590;10.002;2023-04-15T00:03:29;4.70;;;4.20;;
17345;SDS011;8790;53.590;10.002;2023-04-15T00:06:01;4.83;;;4.37;;
17345;SDS011;8790;53.590;10.002;2023-04-15T00:08:32;5.40;;;4.40;;
17345;SDS011;8790;53.590;10.002;2023-04-15T00:11:04;5.03;;;4.53;;
17345;SDS011;8790;53.590;10.002;2023-04-15T00:13:36;5.67;;;4.13;;
17345;SDS011;8790;53.590;10.002;2023-04-15T00:16:10;4.57;;;3.90;;
17345;SDS011;8790;53.590;10.002;2023-04-15T00:18:41;6.10;;;4.27;;
17345;SDS011;8790;53.590;10.002;2023-04-15T00:21:13;4.80;;;3.97;;
17345;SDS011;8790;53.590;10.002;2023-04-15T00:23:45;4.83;;;3.90;;
17345;SDS011;8790;53.590;10.002;2023-04-15T00:26:21;5.33;;;4.00;;
17345;SDS011;8790;53.590;10.002;2023-04-15T00:28:53;5.17;;;4.33;;
17345;SDS011;8790;53.590;10.002;2023-04-15T00:31:26;4.33;;;3.80;;
17345;SDS011;8790;53.590;10.002;2023-04-15T00:33:58;3.90;;;3.50;;
17345;SDS011;8790;53.590;10.002;2023-04-15T00:36:31;4.93;;;4.13;;
17345;SDS011;8790;53.590;10.002;2023-04-15T00:39:04;4.83;;;3.70;;
17345;SDS011;8790;53.590;10.002;2023-04-15T00:41:35;4.83;;;4.27;;
17345;SDS011;8790;53.590;10.002;2023-04-15T00:44:08;5.10;;;4.10;;
17345;SDS011;8790;53.590;10.002;2023-04-15T00:46:41;4.90;;;3.90;;
17345;SDS011;8790;53.590;10.002;2023-04-15T00:49:15;4.10;;;3.70;;
17345;SDS011;8790;53.590;10.002;2023-04-15T00:51:47;4.47;;;3.93;;
17345;SDS011;8790;53.590;10.002;2023-04-15T00:54:19;4.17;;;3.77;;
17345;SDS011;8790;53.590;10.002;2023-04-15T00:56:51;4.37;;;3.97;;
17345;SDS011;8790;53.590;10.002;2023-04-15T00:59:23;3.97;;;3.57;;
17345;SDS011;8790;53.590;10.002;2023-04-15T01:01:56;4.83;;;3.67;;
17345;SDS011;8790;53.590;10.002;2023-04-15T01:04:28;4.57;;;3.47;;
17345;SDS011;8790;53.590;10.002;2023-04-15T01:07:01;4.27;;;3.80;;
17345;SDS011;8790;53.590;10.002;2023-04-15T01:09:32;4.20;;;3.80;;
17345;SDS011;8790;53.590;10.002;2023-04-15T01:12:04;4.93;;;4.23;;
17345;SDS011;8790;53.590;10.002;2023-04-15T01:14:37;5.27;;;4.10;;
17345;SDS011;8790;53.590;10.002;2023-04-15T01:17:10;5.37;;;4.07;;
17345;SDS011;8790;53.590;10.002;2023-04-15T01:19:43;4.47;;;3.73;;
17345;SDS011;8790;53.590;10.002;2023-04-15T01:22:15;4.57;;;4.17;;
17345;SDS011;8790;53.590;10.002;2023-04-15T01:24:48;4.53;;;3.70;;
17345;SDS011;8790;53.590;10.002;2023-04-15T01:27:27;4.30;;;3.90;;
17345;SDS011;8790;53.590;10.002;2023-04-15T01:29:59;5.00;;;4.20;;
17345;SDS011;8790;53.590;10.002;2023-04-15T01:32:35;5.93;;;4.40;;
17345;SDS011;8790;53.590;10.002;2023-04-15T01:35:07;4.33;;;3.93;;
17345;SDS011;8790;53.590;10.002;2023-04-15T01:37:39;4.87;;;4.13;;
17345;SDS011;8790;53.590;10.002;2023-04-15T01:40:11;5.30;;;4.27;;
17345;SDS011;8790;53.590;10.002;2023-04-15T01:42:45;6.00;;;4.87;;
17345;SDS011;8790;53.590;10.002;2023-04-15T01:45:19;4.90;;;4.40;;
17345;SDS011;8790;53.590;10.002;2023-04-15T01:47:50;5.03;;;4.17;;
17345;SDS011;8790;53.590;10.002;2023-04-15T01:50:23;5.03;;;4.33;;
17345;SDS011;8790;53.590;10.002;2023-04-15T01:52:55;5.10;;;4.30;;
17345;SDS011;8790;53.590;10.002;2023-04-15T01:55:27;5.20;;;4.70;;
17345;SDS011;8790;53.590;10.002;2023-04-15T01:58:01;5.07;;;4.20;;
17345;SDS011;8790;53.590;10.002;2023-04-15T02:00:33;5.97;;;4.77;;
17345;SDS011;8790;53.590;10.002;2023-04-15T02:03:05;5.27;;;4.73;;
17345;SDS011;8790;53.590;10.002;2023-04-15T02:05:37;4.93;;;4.43;;
17345;SDS011;8790;53.590;10.002;2023-04-15T02:08:08;5.60;;;4.83;;
17345;SDS011;8790;53.590;10.002;2023-04-15T02:10:41;4.80;;;4.33;;
17345;SDS011;8790;53.590;10.002;2023-04-15T02:13:14;5.47;;;4.97;;
17345;SDS011;8790;53.590;10.002;2023-04-15T02:15:47;5.63;;;4.90;;
17345;SDS011;8790;53.590;10.002;2023-04-15T02:18:18;5.93;;;5.10;;
17345;SDS011;8790;53.590;10.002;2023-04-15T02:20:50;6.07;;;5.17;;
17345;SDS011;8790;53.590;10.002;2023-04-15T02:23:22;6.10;;;5.20;;
17345;SDS011;8790;53.590;10.002;2023-04-15T02:25:54;5.73;;;5.10;;
17345;SDS011;8790;53.590;10.002;2023-04-15T02:28:27;6.60;;;5.73;;
17345;SDS011;8790;53.590;10.002;2023-04-15T02:30:59;7.03;;;5.90;;
17345;SDS011;8790;53.590;10.002;2023-04-15T02:33:35;5.93;;;5.13;;
17345;SDS011;8790;53.590;10.002;2023-04-15T02:36:07;6.87;;;5.90;;
17345;SDS011;8790;53.590;10.002;2023-04-15T02:38:40;7.23;;;6.17;;
17345;SDS011;8790;53.590;10.002;2023-04-15T02:41:12;6.50;;;5.77;;
17345;SDS011;8790;53.590;10.002;2023-04-15T02:43:45;7.53;;;6.17;;
17345;SDS011;8790;53.590;10.002;2023-04-15T02:46:18;6.83;;;6.13;;
17345;SDS011;8790;53.590;10.002;2023-04-15T02:48:51;7.83;;;6.40;;
17345;SDS011;8790;53.590;10.002;2023-04-15T02:51:29;7.50;;;6.63;;
17345;SDS011;8790;53.590;10.002;2023-04-15T02:54:01;7.63;;;6.50;;
17345;SDS011;8790;53.590;10.002;2023-04-15T02:56:33;8.13;;;6.93;;
17345;SDS011;8790;53.590;10.002;2023-04-15T02:59:06;8.20;;;6.90;;
17345;SDS011;8790;53.590;10.002;2023-04-15T03:01:38;7.63;;;6.50;;
17345;SDS011;8790;53.590;10.002;2023-04-15T03:04:09;8.17;;;6.93;;
17345;SDS011;8790;53.590;10.002;2023-04-15T03:06:42;8.27;;;7.07;;
17345;SDS011;8790;53.590;10.002;2023-04-15T03:09:14;7.80;;;6.30;;
17345;SDS011;8790;53.590;10.002;2023-04-15T03:11:46;8.63;;;7.00;;
17345;SDS011;8790;53.590;10.002;2023-04-15T03:14:20;9.40;;;7.50;;
17345;SDS011;8790;53.590;10.002;2023-04-15T03:16:52;8.83;;;7.13;;
17345;SDS011;8790;53.590;10.002;2023-04-15T03:19:24;10.13;;;7.77;;
17345;SDS011;8790;53.590;10.002;2023-04-15T03:21:56;8.70;;;7.13;;
17345;SDS011;8790;53.590;10.002;2023-04-15T03:24:28;9.13;;;7.47;;
17345;SDS011;8790;53.590;10.002;2023-04-15T03:27:01;9.10;;;7.30;;
17345;SDS011;8790;53.590;10.002;2023-04-15T03:29:34;9.20;;;7.20;;
17345;SDS011;8790;53.590;10.002;2023-04-15T03:32:06;8.10;;;6.80;;
17345;SDS011;8790;53.590;10.002;2023-04-15T03:34:38;9.20;;;7.60;;
17345;SDS011;8790;53.590;10.002;2023-04-15T03:37:10;10.07;;;8.03;;
17345;SDS011;8790;53.590;10.002;2023-04-15T03:39:41;10.03;;;7.90;;
17345;SDS011;8790;53.590;10.002;2023-04-15T03:42:13;11.17;;;7.87;;
17345;SDS011;8790;53.590;10.002;2023-04-15T03:44:46;9.37;;;7.67;;
17345;SDS011;8790;53.590;10.002;2023-04-15T03:47:18;10.63;;;7.47;;
17345;SDS011;8790;53.590;10.002;2023-04-15T03:49:50;10.63;;;8.17;;
17345;SDS011;8790;53.590;10.002;2023-04-15T03:52:22;10.97;;;8.13;;
17345;SDS011;8790;53.590;10.002;2023-04-15T03:54:54;12.17;;;9.43;;
17345;SDS011;8790;53.590;10.002;2023-04-15T03:57:26;11.93;;;9.07;;
17345;SDS011;8790;53.590;10.002;2023-04-15T03:59:59;10.87;;;8.63;;
17345;SDS011;8790;53.590;10.002;2023-04-15T04:02:42;12.07;;;9.20;;
17345;SDS011;8790;53.590;10.002;2023-04-15T04:05:15;11.57;;;9.10;;
17345;SDS011;8790;53.590;10.002;2023-04-15T04:07:46;12.10;;;9.23;;
17345;SDS011;8790;53.590;10.002;2023-04-15T04:10:18;11.30;;;8.43;;
17345;SDS011;8790;53.590;10.002;2023-04-15T04:12:50;12.23;;;9.10;;
17345;SDS011;8790;53.590;10.002;2023-04-15T04:15:23;11.77;;;9.13;;
17345;SDS011;8790;53.590;10.002;2023-04-15T04:17:54;12.10;;;9.20;;
17345;SDS011;8790;53.590;10.002;2023-04-15T04:20:26;11.47;;;9.03;;
17345;SDS011;8790;53.590;10.002;2023-04-15T04:22:58;11.70;;;9.60;;
17345;SDS011;8790;53.590;10.002;2023-04-15T04:25:30;11.20;;;9.53;;
17345;SDS011;8790;53.590;10.002;2023-04-15T04:28:02;12.87;;;9.57;;
17345;SDS011;8790;53.590;10.002;2023-04-15T04:30:35;13.43;;;10.10;;
17345;SDS011;8790;53.590;10.002;2023-04-15T04:33:07;14.20;;;10.63;;
17345;SDS011;8790;53.590;10.002;2023-04-15T04:35:39;14.47;;;10.93;;
17345;SDS011;8790;53.590;10.002;2023-04-15T04:38:10;13.63;;;10.40;;
17345;SDS011;8790;53.590;10.002;2023-04-15T04:40:42;14.47;;;10.40;;
17345;SDS011;8790;53.590;10.002;2023-04-15T04:43:14;15.23;;;11.27;;
17345;SDS011;8790;53.590;10.002;2023-04-15T04:45:47;18.67;;;13.33;;
17345;SDS011;8790;53.590;10.002;2023-04-15T04:48:19;16.10;;;11.40;;
17345;SDS011;8790;53.590;10.002;2023-04-15T04:50:50;16.47;;;12.50;;
17345;SDS011;8790;53.590;10.002;2023-04-15T04:53:22;17.60;;;12.70;;
17345;SDS011;8790;53.590;10.002;2023-04-15T04:55:54;20.00;;;14.27;;
17345;SDS011;8790;53.590;10.002;2023-04-15T04:58:26;17.63;;;13.20;;
17345;SDS011;8790;53.590;10.002;2023-04-15T05:00:59;19.50;;;13.80;;
17345;SDS011;8790;53.590;10.002;2023-04-15T05:03:32;17.93;;;12.93;;
17345;SDS011;8790;53.590;10.002;2023-04-15T05:06:03;20.97;;;14.57;;
17345;SDS011;8790;53.590;10.002;2023-04-15T05:08:37;22.53;;;14.37;;
17345;SDS011;8790;53.590;10.002;2023-04-15T05:11:10;20.23;;;14.30;;
17345;SDS011;8790;53.590;10.002;2023-04-15T05:13:42;22.30;;;15.67;;
17345;SDS011;8790;53.590;10.002;2023-04-15T05:16:15;20.30;;;14.80;;
17345;SDS011;8790;53.590;10.002;2023-04-15T05:18:46;21.33;;;16.10;;
17345;SDS011;8790;53.590;10.002;2023-04-15T05:21:18;23.57;;;16.90;;
17345;SDS011;8790;53.590;10.002;2023-04-15T05:23:50;27.13;;;17.17;;
17345;SDS011;8790;53.590;10.002;2023-04-15T05:26:22;25.00;;;17.40;;
17345;SDS011;8790;53.590;10.002;2023-04-15T05:28:54;22.30;;;15.93;;
17345;SDS011;8790;53.590;10.002;2023-04-15T05:31:27;24.53;;;17.83;;
17345;SDS011;8790;53.590;10.002;2023-04-15T05:33:59;22.47;;;16.60;;
17345;SDS011;8790;53.590;10.002;2023-04-15T05:36:30;23.17;;;17.13;;
17345;SDS011;8790;53.590;10.002;2023-04-15T05:39:02;23.57;;;17.23;;
17345;SDS011;8790;53.590;10.002;2023-04-15T05:41:34;25.93;;;17.83;;
17345;SDS011;8790;53.590;10.002;2023-04-15T05:44:05;26.57;;;18.80;;
17345;SDS011;8790;53.590;10.002;2023-04-15T05:46:38;23.13;;;17.40;;
17345;SDS011;8790;53.590;10.002;2023-04-15T05:49:10;23.80;;;17.33;;
17345;SDS011;8790;53.590;10.002;2023-04-15T05:51:42;22.57;;;16.30;;
17345;SDS011;8790;53.590;10.002;2023-04-15T05:54:14;22.67;;;16.97;;
17345;SDS011;8790;53.590;10.002;2023-04-15T05:56:46;24.83;;;17.27;;
17345;SDS011;8790;53.590;10.002;2023-04-15T05:59:18;23.77;;;17.03;;
17345;SDS011;8790;53.590;10.002;2023-04-15T06:01:51;22.80;;;17.70;;
17345;SDS011;8790;53.590;10.002;2023-04-15T06:04:22;25.23;;;18.13;;
17345;SDS011;8790;53.590;10.002;2023-04-15T06:06:54;24.50;;;17.57;;
17345;SDS011;8790;53.590;10.002;2023-04-15T06:09:26;23.47;;;17.37;;
17345;SDS011;8790;53.590;10.002;2023-04-15T06:11:57;27.23;;;18.80;;
17345;SDS011;8790;53.590;10.002;2023-04-15T06:14:30;25.10;;;17.90;;
17345;SDS011;8790;53.590;10.002;2023-04-15T06:17:03;27.30;;;18.80;;
17345;SDS011;8790;53.590;10.002;2023-04-15T06:19:35;25.53;;;18.63;;
17345;SDS011;8790;53.590;10.002;2023-04-15T06:22:08;27.13;;;19.30;;
17345;SDS011;8790;53.590;10.002;2023-04-15T06:24:40;25.53;;;18.90;;
17345;SDS011;8790;53.590;10.002;2023-04-15T06:27:12;24.73;;;17.83;;
17345;SDS011;8790;53.590;10.002;2023-04-15T06:29:43;26.97;;;19.53;;
17345;SDS011;8790;53.590;10.002;2023-04-15T06:32:16;28.40;;;19.77;;
17345;SDS011;8790;53.590;10.002;2023-04-15T06:34:48;28.67;;;20.17;;
17345;SDS011;8790;53.590;10.002;2023-04-15T06:37:20;30.43;;;21.07;;
17345;SDS011;8790;53.590;10.002;2023-04-15T06:39:51;30.93;;;21.67;;
17345;SDS011;8790;53.590;10.002;2023-04-15T06:42:23;28.60;;;21.33;;
17345;SDS011;8790;53.590;10.002;2023-04-15T06:44:55;32.50;;;22.87;;
17345;SDS011;8790;53.590;10.002;2023-04-15T06:47:28;33.73;;;23.53;;
17345;SDS011;8790;53.590;10.002;2023-04-15T06:50:00;31.43;;;22.97;;
17345;SDS011;8790;53.590;10.002;2023-04-15T06:52:33;31.23;;;23.03;;
17345;SDS011;8790;53.590;10.002;2023-04-15T06:55:05;34.50;;;24.00;;
17345;SDS011;8790;53.590;10.002;2023-04-15T06:57:38;31.13;;;22.50;;
17345;SDS011;8790;53.590;10.002;2023-04-15T07:00:10;34.07;;;23.30;;
17345;SDS011;8790;53.590;10.002;2023-04-15T07:02:44;34.27;;;24.43;;
17345;SDS011;8790;53.590;10.002;2023-04-15T07:05:16;32.40;;;23.90;;
17345;SDS011;8790;53.590;10.002;2023-04-15T07:07:48;35.53;;;25.10;;
17345;SDS011;8790;53.590;10.002;2023-04-15T07:10:21;36.50;;;25.13;;
17345;SDS011;8790;53.590;10.002;2023-04-15T07:12:53;34.13;;;24.87;;
17345;SDS011;8790;53.590;10.002;2023-04-15T07:15:25;35.30;;;25.13;;
17345;SDS011;8790;53.590;10.002;2023-04-15T07:17:58;34.77;;;24.47;;
17345;SDS011;8790;53.590;10.002;2023-04-15T07:20:29;35.43;;;24.90;;
17345;SDS011;8790;53.590;10.002;2023-04-15T07:23:01;39.27;;;26.90;;
17345;SDS011;8790;53.590;10.002;2023-04-15T07:25:33;37.27;;;25.97;;
17345;SDS011;8790;53.590;10.002;2023-04-15T07:28:05;38.53;;;25.60;;
17345;SDS011;8790;53.590;10.002;2023-04-15T07:30:37;34.77;;;25.10;;
17345;SDS011;8790;53.590;10.002;2023-04-15T07:33:10;36.70;;;25.10;;
17345;SDS011;8790;53.590;10.002;2023-04-15T07:35:41;37.63;;;25.57;;
17345;SDS011;8790;53.590;10.002;2023-04-15T07:38:14;37.03;;;25.93;;
17345;SDS011;8790;53.590;10.002;2023-04-15T07:40:45;37.90;;;26.37;;
17345;SDS011;8790;53.590;10.002;2023-04-15T07:43:17;38.90;;;25.33;;
17345;SDS011;8790;53.590;10.002;2023-04-15T07:45:50;37.53;;;26.17;;
17345;SDS011;8790;53.590;10.002;2023-04-15T07:48:23;36.00;;;25.23;;
17345;SDS011;8790;53.590;10.002;2023-04-15T07:50:55;37.40;;;24.50;;
17345;SDS011;8790;53.590;10.002;2023-04-15T07:53:27;36.17;;;25.47;;
17345;SDS011;8790;53.590;10.002;2023-04-15T07:55:59;37.27;;;26.07;;
17345;SDS011;8790;53.590;10.002;2023-04-15T07:58:31;39.77;;;26.50;;
17345;SDS011;8790;53.590;10.002;2023-04-15T08:01:03;37.00;;;26.20;;
17345;SDS011;8790;53.590;10.002;2023-04-15T08:03:37;40.00;;;26.60;;
17345;SDS011;8790;53.590;10.002;2023-04-15T08:06:09;37.33;;;25.43;;
17345;SDS011;8790;53.590;10.002;2023-04-15T08:08:41;38.63;;;26.97;;
17345;SDS011;8790;53.590;10.002;2023-04-15T08:11:13;38.93;;;27.00;;
17345;SDS011;8790;53.590;10.002;2023-04-15T08:13:45;40.00;;;27.10;;
17345;SDS011;8790;53.590;10.002;2023-04-15T08:16:18;40.17;;;26.83;;
17345;SDS011;8790;53.590;10.002;2023-04-15T08:18:52;40.77;;;25.87;;
17345;SDS011;8790;53.590;10.002;2023-04-15T08:21:25;39.23;;;27.60;;
17345;SDS011;8790;53.590;10.002;2023-04-15T08:24:00;39.57;;;26.93;;
17345;SDS011;8790;53.590;10.002;2023-04-15T08:26:32;38.70;;;26.17;;
17345;SDS011;8790;53.590;10.002;2023-04-15T08:29:04;39.07;;;26.93;;
17345;SDS011;8790;53.590;10.002;2023-04-15T08:31:35;39.27;;;26.60;;
17345;SDS011;8790;53.590;10.002;2023-04-15T08:34:08;40.37;;;27.70;;
17345;SDS011;8790;53.590;10.002;2023-04-15T08:36:41;42.20;;;27.63;;
17345;SDS011;8790;53.590;10.002;2023-04-15T08:39:13;38.83;;;27.03;;
17345;SDS011;8790;53.590;10.002;2023-04-15T08:41:46;43.60;;;28.60;;
17345;SDS011;8790;53.590;10.002;2023-04-15T08:44:22;35.30;;;25.07;;
17345;SDS011;8790;53.590;10.002;2023-04-15T08:46:55;39.57;;;26.63;;
17345;SDS011;8790;53.590;10.002;2023-04-15T08:49:32;37.03;;;26.47;;
17345;SDS011;8790;53.590;10.002;2023-04-15T08:52:09;38.63;;;25.63;;
17345;SDS011;8790;53.590;10.002;2023-04-15T08:54:41;37.57;;;26.07;;
17345;SDS011;8790;53.590;10.002;2023-04-15T08:57:13;39.40;;;25.97;;
17345;SDS011;8790;53.590;10.002;2023-04-15T08:59:45;36.77;;;25.73;;
17345;SDS011;8790;53.590;10.002;2023-04-15T09:02:18;37.40;;;25.67;;
17345;SDS011;8790;53.590;10.002;2023-04-15T09:04:52;39.40;;;26.70;;
17345;SDS011;8790;53.590;10.002;2023-04-15T09:07:24;37.97;;;26.67;;
17345;SDS011;8790;53.590;10.002;2023-04-15T09:09:56;40.33;;;27.10;;
17345;SDS011;8790;53.590;10.002;2023-04-15T09:12:27;38.43;;;26.93;;
17345;SDS011;8790;53.590;10.002;2023-04-15T09:14:59;40.03;;;27.13;;
17345;SDS011;8790;53.590;10.002;2023-04-15T09:17:32;37.97;;;26.10;;
17345;SDS011;8790;53.590;10.002;2023-04-15T09:20:09;38.50;;;25.70;;
17345;SDS011;8790;53.590;10.002;2023-04-15T09:22:46;37.23;;;26.50;;
17345;SDS011;8790;53.590;10.002;2023-04-15T09:25:25;38.43;;;26.73;;
17345;SDS011;8790;53.590;10.002;2023-04-15T09:28:00;42.80;;;28.53;;
17345;SDS011;8790;53.590;10.002;2023-04-15T09:30:32;41.97;;;27.80;;
17345;SDS011;8790;53.590;10.002;2023-04-15T09:33:04;38.10;;;27.83;;
17345;SDS011;8790;53.590;10.002;2023-04-15T09:35:38;42.63;;;29.57;;
17345;SDS011;8790;53.590;10.002;2023-04-15T09:38:10;42.30;;;30.48;;
17345;SDS011;8790;53.590;10.002;2023-04-15T09:40:42;39.40;;;28.13;;
17345;SDS011;8790;53.590;10.002;2023-04-15T09:43:14;39.13;;;28.17;;
17345;SDS011;8790;53.590;10.002;2023-04-15T09:45:46;40.00;;;26.60;;
17345;SDS011;8790;53.590;10.002;2023-04-15T09:48:20;40.80;;;27.93;;
17345;SDS011;8790;53.590;10.002;2023-04-15T09:50:54;40.70;;;26.97;;
17345;SDS011;8790;53.590;10.002;2023-04-15T09:53:29;40.83;;;27.17;;
17345;SDS011;8790;53.590;10.002;2023-04-15T09:56:04;40.47;;;27.67;;
17345;SDS011;8790;53.590;10.002;2023-04-15T09:58:38;39.40;;;27.43;;
17345;SDS011;8790;53.590;10.002;2023-04-15T10:01:11;36.10;;;26.17;;
17345;SDS011;8790;53.590;10.002;2023-04-15T10:03:43;41.10;;;30.80;;
17345;SDS011;8790;53.590;10.002;2023-04-15T10:06:17;40.93;;;28.13;;
17345;SDS011;8790;53.590;10.002;2023-04-15T10:08:49;37.47;;;27.33;;
17345;SDS011;8790;53.590;10.002;2023-04-15T10:11:21;34.37;;;24.20;;
17345;SDS011;8790;53.590;10.002;2023-04-15T10:13:54;36.13;;;25.77;;
17345;SDS011;8790;53.590;10.002;2023-04-15T10:16:27;39.20;;;25.10;;
17345;SDS011;8790;53.590;10.002;2023-04-15T10:19:00;40.87;;;27.20;;
17345;SDS011;8790;53.590;10.002;2023-04-15T10:21:34;38.03;;;26.13;;
17345;SDS011;8790;53.590;10.002;2023-04-15T10:24:07;40.80;;;31.67;;
17345;SDS011;8790;53.590;10.002;2023-04-15T10:26:40;34.90;;;26.60;;
17345;SDS011;8790;53.590;10.002;2023-04-15T10:29:13;31.40;;;24.53;;
17345;SDS011;8790;53.590;10.002;2023-04-15T10:31:45;32.43;;;24.57;;
17345;SDS011;8790;53.590;10.002;2023-04-15T10:34:18;32.23;;;24.37;;
17345;SDS011;8790;53.590;10.002;2023-04-15T10:36:51;32.93;;;25.70;;
17345;SDS011;8790;53.590;10.002;2023-04-15T10:39:37;30.37;;;23.93;;
17345;SDS011;8790;53.590;10.002;2023-04-15T10:42:14;31.27;;;24.53;;
17345;SDS011;8790;53.590;10.002;2023-04-15T10:44:47;32.13;;;23.47;;
17345;SDS011;8790;53.590;10.002;2023-04-15T10:47:21;30.00;;;22.67;;
17345;SDS011;8790;53.590;10.002;2023-04-15T10:49:55;32.33;;;24.10;;
17345;SDS011;8790;53.590;10.002;2023-04-15T10:52:29;32.33;;;23.90;;
17345;SDS011;8790;53.590;10.002;2023-04-15T10:55:02;23.87;;;20.10;;
17345;SDS011;8790;53.590;10.002;2023-04-15T10:57:42;29.10;;;21.10;;
17345;SDS011;8790;53.590;10.002;2023-04-15T11:00:15;25.07;;;18.87;;
17345;SDS011;8790;53.590;10.002;2023-04-15T11:02:48;22.43;;;17.23;;
17345;SDS011;8790;53.590;10.002;2023-04-15T11:08:21;18.40;;;14.90;;
17345;SDS011;8790;53.590;10.002;2023-04-15T11:14:38;14.47;;;12.43;;
17345;SDS011;8790;53.590;10.002;2023-04-15T11:17:12;15.40;;;12.63;;
17345;SDS011;8790;53.590;10.002;2023-04-15T11:19:44;14.70;;;13.17;;
17345;SDS011;8790;53.590;10.002;2023-04-15T11:22:16;16.10;;;14.30;;
17345;SDS011;8790;53.590;10.002;2023-04-15T11:24:49;17.10;;;13.73;;
17345;SDS011;8790;53.590;10.002;2023-04-15T11:27:21;16.83;;;12.87;;
17345;SDS011;8790;53.590;10.002;2023-04-15T11:29:53;13.87;;;12.43;;
17345;SDS011;8790;53.590;10.002;2023-04-15T11:32:25;14.37;;;12.77;;
17345;SDS011;8790;53.590;10.002;2023-04-15T11:34:57;14.57;;;12.87;;
17345;SDS011;8790;53.590;10.002;2023-04-15T11:37:28;15.70;;;12.90;;
17345;SDS011;8790;53.590;10.002;2023-04-15T11:40:05;13.30;;;11.90;;
17345;SDS011;8790;53.590;10.002;2023-04-15T11:42:38;12.87;;;11.67;;
17345;SDS011;8790;53.590;10.002;2023-04-15T11:45:11;14.17;;;11.07;;
17345;SDS011;8790;53.590;10.002;2023-04-15T11:47:45;13.37;;;11.87;;
17345;SDS011;8790;53.590;10.002;2023-04-15T11:50:16;14.70;;;11.47;;
17345;SDS011;8790;53.590;10.002;2023-04-15T11:52:52;12.97;;;11.67;;
17345;SDS011;8790;53.590;10.002;2023-04-15T11:55:25;13.43;;;11.80;;
17345;SDS011;8790;53.590;10.002;2023-04-15T11:58:07;13.73;;;12.33;;
17345;SDS011;8790;53.590;10.002;2023-04-15T12:00:40;14.30;;;12.47;;
17345;SDS011;8790;53.590;10.002;2023-04-15T12:03:17;13.20;;;11.87;;
17345;SDS011;8790;53.590;10.002;2023-04-15T12:06:03;13.43;;;12.00;;
17345;SDS011;8790;53.590;10.002;2023-04-15T12:08:55;13.47;;;11.97;;
17345;SDS011;8790;53.590;10.002;2023-04-15T12:11:31;13.33;;;11.93;;
17345;SDS011;8790;53.590;10.002;2023-04-15T12:14:09;15.13;;;12.30;;
17345;SDS011;8790;53.590;10.002;2023-04-15T12:16:43;14.10;;;12.60;;
17345;SDS011;8790;53.590;10.002;2023-04-15T12:19:18;13.63;;;12.23;;
17345;SDS011;8790;53.590;10.002;2023-04-15T12:21:56;13.87;;;12.30;;
17345;SDS011;8790;53.590;10.002;2023-04-15T12:24:30;14.03;;;12.53;;
17345;SDS011;8790;53.590;10.002;2023-04-15T12:27:04;12.87;;;11.57;;
17345;SDS011;8790;53.590;10.002;2023-04-15T12:29:37;13.43;;;12.13;;
17345;SDS011;8790;53.590;10.002;2023-04-15T12:32:10;13.13;;;11.37;;
17345;SDS011;8790;53.590;10.002;2023-04-15T12:34:43;12.73;;;11.43;;
17345;SDS011;8790;53.590;10.002;2023-04-15T12:37:19;11.93;;;10.73;;
17345;SDS011;8790;53.590;10.002;2023-04-15T12:39:52;12.77;;;11.47;;
17345;SDS011;8790;53.590;10.002;2023-04-15T12:42:25;13.50;;;11.40;;
17345;SDS011;8790;53.590;10.002;2023-04-15T12:44:57;14.30;;;11.17;;
17345;SDS011;8790;53.590;10.002;2023-04-15T12:47:28;12.90;;;11.50;;
17345;SDS011;8790;53.590;10.002;2023-04-15T12:50:00;12.50;;;11.20;;
17345;SDS011;8790;53.590;10.002;2023-04-15T12:52:32;12.17;;;10.97;;
17345;SDS011;8790;53.590;10.002;2023-04-15T12:55:04;13.10;;;11.03;;
17345;SDS011;8790;53.590;10.002;2023-04-15T12:57:38;15.23;;;12.37;;
17345;SDS011;8790;53.590;10.002;2023-04-15T13:00:10;14.30;;;12.37;;
17345;SDS011;8790;53.590;10.002;2023-04-15T13:02:42;13.80;;;12.00;;
17345;SDS011;8790;53.590;10.002;2023-04-15T13:05:14;13.67;;;12.20;;
17345;SDS011;8790;53.590;10.002;2023-04-15T13:07:46;14.50;;;13.00;;
17345;SDS011;8790;53.590;10.002;2023-04-15T13:10:18;14.50;;;13.00;;
17345;SDS011;8790;53.590;10.002;2023-04-15T13:12:52;13.77;;;12.10;;
17345;SDS011;8790;53.590;10.002;2023-04-15T13:15:25;14.07;;;12.17;;
17345;SDS011;8790;53.590;10.002;2023-04-15T13:17:57;14.33;;;12.83;;
17345;SDS011;8790;53.590;10.002;2023-04-15T13:20:29;14.30;;;12.67;;
17345;SDS011;8790;53.590;10.002;2023-04-15T13:23:01;14.03;;;12.07;;
17345;SDS011;8790;53.590;10.002;2023-04-15T13:25:33;13.10;;;11.60;;
17345;SDS011;8790;53.590;10.002;2023-04-15T13:28:06;13.73;;;11.30;;
17345;SDS011;8790;53.590;10.002;2023-04-15T13:30:38;13.67;;;11.57;;
17345;SDS011;8790;53.590;10.002;2023-04-15T13:33:10;11.17;;;10.03;;
17345;SDS011;8790;53.590;10.002;2023-04-15T13:35:42;11.60;;;10.40;;
17345;SDS011;8790;53.590;10.002;2023-04-15T13:38:13;13.27;;;11.40;;
17345;SDS011;8790;53.590;10.002;2023-04-15T13:40:45;12.73;;;11.23;;
17345;SDS011;8790;53.590;10.002;2023-04-15T13:43:20;12.77;;;11.27;;
17345;SDS011;8790;53.590;10.002;2023-04-15T13:45:51;13.50;;;12.10;;
17345;SDS011;8790;53.590;10.002;2023-04-15T13:48:23;15.10;;;13.27;;
17345;SDS011;8790;53.590;10.002;2023-04-15T13:50:55;12.77;;;11.47;;
17345;SDS011;8790;53.590;10.002;2023-04-15T13:53:26;11.20;;;10.00;;
17345;SDS011;8790;53.590;10.002;2023-04-15T13:55:59;10.37;;;9.27;;
17345;SDS011;8790;53.590;10.002;2023-04-15T13:58:33;10.03;;;9.03;;
17345;SDS011;8790;53.590;10.002;2023-04-15T14:01:04;10.63;;;9.63;;
17345;SDS011;8790;53.590;10.002;2023-04-15T14:03:36;10.60;;;9.50;;
17345;SDS011;8790;53.590;10.002;2023-04-15T14:06:08;9.90;;;8.90;;
17345;SDS011;8790;53.590;10.002;2023-04-15T14:08:39;10.07;;;9.10;;
17345;SDS011;8790;53.590;10.002;2023-04-15T14:11:11;9.50;;;8.57;;
17345;SDS011;8790;53.590;10.002;2023-04-15T14:13:44;10.60;;;8.87;;
17345;SDS011;8790;53.590;10.002;2023-04-15T14:16:16;9.57;;;8.57;;
17345;SDS011;8790;53.590;10.002;2023-04-15T14:18:48;12.13;;;9.87;;
17345;SDS011;8790;53.590;10.002;2023-04-15T14:21:20;10.63;;;9.53;;
17345;SDS011;8790;53.590;10.002;2023-04-15T14:23:51;10.70;;;9.40;;
17345;SDS011;8790;53.590;10.002;2023-04-15T14:26:24;10.90;;;9.80;;
17345;SDS011;8790;53.590;10.002;2023-04-15T14:28:57;9.93;;;8.93;;
17345;SDS011;8790;53.590;10.002;2023-04-15T14:31:28;10.67;;;9.37;;
17345;SDS011;8790;53.590;10.002;2023-04-15T14:34:00;11.50;;;9.00;;
17345;SDS011;8790;53.590;10.002;2023-04-15T14:36:32;12.23;;;9.80;;
17345;SDS011;8790;53.590;10.002;2023-04-15T14:39:03;10.97;;;9.77;;
17345;SDS011;8790;53.590;10.002;2023-04-15T14:41:35;10.33;;;9.27;;
17345;SDS011;8790;53.590;10.002;2023-04-15T14:44:08;10.33;;;9.17;;
17345;SDS011;8790;53.590;10.002;2023-04-15T14:46:40;9.60;;;8.50;;
17345;SDS011;8790;53.590;10.002;2023-04-15T14:49:12;11.70;;;10.50;;
17345;SDS011;8790;53.590;10.002;2023-04-15T14:51:44;9.87;;;8.97;;
17345;SDS011;8790;53.590;10.002;2023-04-15T14:54:16;9.63;;;8.20;;
17345;SDS011;8790;53.590;10.002;2023-04-15T14:56:47;9.80;;;8.80;;
17345;SDS011;8790;53.590;10.002;2023-04-15T14:59:20;9.00;;;8.10;;
17345;SDS011;8790;53.590;10.002;2023-04-15T15:01:52;9.57;;;8.10;;
17345;SDS011;8790;53.590;10.002;2023-04-15T15:04:24;14.07;;;8.13;;
17345;SDS011;8790;53.590;10.002;2023-04-15T15:06:55;9.80;;;8.70;;
17345;SDS011;8790;53.590;10.002;2023-04-15T15:09:27;9.77;;;8.40;;